Time;durP1;ratioP1;P1;durP2;ratioP2;P2;SDS_P1;SDS_P2;PMS_P1;PMS_P2;Temp;Humidity;BMP_temperature;BMP_pressure;BME280_temperature;BME280_humidity;BME280_pressure;Samples;Min_cycle;Max_cycle;Signal;HPM_P1;HPM_P2
2023/01/27 00:00:52;;;;;;;0.10;0.10;;;;;;;;;;4924859;28;20043;-77
2023/01/27 00:03:18;;;;;;;0.20;0.20;;;;;;;;;;4927744;28;20057;-77
2023/01/27 00:05:45;;;;;;;0.10;0.10;;;;;;;;;;4925607;28;20051;-77
2023/01/27 00:08:11;;;;;;;0.10;0.10;;;;;;;;;;4928572;28;20058;-77
2023/01/27 00:10:37;;;;;;;0.10;0.10;;;;;;;;;;4929364;28;20049;-75
2023/01/27 00:15:48;;;;;;;0.10;0.10;;;;;;;;;;4928835;28;20051;-76
2023/01/27 00:18:14;;;;;;;0.10;0.10;;;;;;;;;;4925404;28;20054;-76
2023/01/27 00:26:12;;;;;;;0.10;0.10;;;;;;;;;;4928258;28;20408;-75
2023/01/27 00:28:39;;;;;;;0.10;0.10;;;;;;;;;;4927099;28;20038;-75
2023/01/27 00:33:54;;;;;;;0.43;0.40;;;;;;;;;;4922204;28;20046;-76
2023/01/27 00:36:21;;;;;;;0.10;0.10;;;;;;;;;;4924938;28;20546;-75
2023/01/27 00:38:47;;;;;;;0.10;0.10;;;;;;;;;;4921197;28;20043;-76
2023/01/27 00:41:20;;;;;;;0.10;0.10;;;;;;;;;;4926485;28;20084;-76
2023/01/27 00:43:46;;;;;;;0.10;0.10;;;;;;;;;;4928599;28;20058;-77
2023/01/27 00:46:12;;;;;;;0.10;0.10;;;;;;;;;;4929531;28;20051;-76
2023/01/27 00:48:38;;;;;;;0.10;0.10;;;;;;;;;;4926257;28;20439;-76
2023/01/27 00:51:04;;;;;;;0.10;0.10;;;;;;;;;;4926397;28;20061;-77
2023/01/27 00:53:30;;;;;;;0.10;0.10;;;;;;;;;;4927851;28;20162;-76
2023/01/27 00:55:57;;;;;;;0.10;0.10;;;;;;;;;;4929029;28;20055;-76
2023/01/27 00:58:23;;;;;;;0.20;0.20;;;;;;;;;;4926958;28;20157;-75
2023/01/27 01:00:49;;;;;;;0.10;0.10;;;;;;;;;;4925689;28;20651;-76
2023/01/27 01:03:15;;;;;;;0.20;0.20;;;;;;;;;;4927683;28;20636;-76
2023/01/27 01:05:41;;;;;;;0.10;0.10;;;;;;;;;;4922305;28;20503;-76
2023/01/27 01:08:07;;;;;;;0.10;0.10;;;;;;;;;;4929277;28;20165;-76
2023/01/27 01:10:33;;;;;;;0.10;0.10;;;;;;;;;;4923626;28;20058;-76
2023/01/27 01:12:59;;;;;;;0.10;0.10;;;;;;;;;;4923791;28;20047;-76
2023/01/27 01:15:25;;;;;;;0.10;0.10;;;;;;;;;;4926400;28;20901;-76
2023/01/27 01:17:51;;;;;;;0.10;0.10;;;;;;;;;;4927146;28;20091;-76
2023/01/27 01:20:17;;;;;;;0.10;0.10;;;;;;;;;;4927049;28;20205;-76
2023/01/27 01:22:43;;;;;;;0.15;0.15;;;;;;;;;;4926756;28;20486;-75
2023/01/27 01:25:09;;;;;;;0.10;0.10;;;;;;;;;;4924119;28;20043;-75
2023/01/27 01:27:35;;;;;;;0.10;0.10;;;;;;;;;;4925317;28;20590;-75
2023/01/27 01:30:02;;;;;;;0.10;0.10;;;;;;;;;;4931303;28;20403;-76
2023/01/27 01:32:28;;;;;;;0.10;0.10;;;;;;;;;;4928967;28;20565;-76
2023/01/27 01:34:54;;;;;;;0.10;0.10;;;;;;;;;;4925849;28;20055;-76
2023/01/27 01:37:20;;;;;;;0.10;0.10;;;;;;;;;;4930225;28;20054;-76
2023/01/27 01:39:46;;;;;;;0.10;0.10;;;;;;;;;;4933542;28;20047;-76
2023/01/27 01:42:12;;;;;;;0.20;0.20;;;;;;;;;;4935391;28;20463;-76
2023/01/27 01:44:43;;;;;;;0.20;0.20;;;;;;;;;;4930188;28;20046;-75
2023/01/27 01:47:14;;;;;;;0.20;0.20;;;;;;;;;;4932950;28;20443;-75
2023/01/27 01:49:41;;;;;;;0.10;0.10;;;;;;;;;;4930353;28;20105;-75
2023/01/27 01:52:09;;;;;;;0.10;0.10;;;;;;;;;;4929732;28;20109;-76
2023/01/27 01:54:42;;;;;;;0.10;0.10;;;;;;;;;;4931626;28;20053;-74
2023/01/27 01:57:32;;;;;;;0.10;0.10;;;;;;;;;;4925720;28;20536;-78
2023/01/27 01:59:59;;;;;;;0.10;0.10;;;;;;;;;;4913537;28;20058;-76
2023/01/27 02:02:25;;;;;;;0.10;0.10;;;;;;;;;;4925873;28;20057;-75
2023/01/27 02:05:01;;;;;;;0.20;0.20;;;;;;;;;;4929831;28;20054;-76
2023/01/27 02:07:36;;;;;;;0.10;0.10;;;;;;;;;;4928136;28;20051;-76
2023/01/27 02:10:02;;;;;;;0.10;0.10;;;;;;;;;;4926980;28;20134;-75
2023/01/27 02:12:28;;;;;;;0.10;0.10;;;;;;;;;;4929042;28;20046;-76
2023/01/27 02:14:54;;;;;;;0.10;0.10;;;;;;;;;;4925500;28;20462;-76
2023/01/27 02:17:21;;;;;;;0.10;0.10;;;;;;;;;;4934044;28;20482;-75
2023/01/27 02:19:55;;;;;;;0.10;0.10;;;;;;;;;;4933166;28;20042;-75
2023/01/27 02:22:28;;;;;;;0.10;0.10;;;;;;;;;;4932064;28;20628;-75
2023/01/27 02:24:58;;;;;;;0.10;0.10;;;;;;;;;;4933064;28;20053;-75
2023/01/27 02:27:24;;;;;;;0.10;0.10;;;;;;;;;;4933487;28;20051;-76
2023/01/27 02:29:50;;;;;;;0.10;0.10;;;;;;;;;;4923271;28;20078;-77
2023/01/27 02:32:23;;;;;;;0.10;0.10;;;;;;;;;;4924524;28;20074;-76
2023/01/27 02:34:49;;;;;;;0.10;0.10;;;;;;;;;;4922937;28;20057;-76
2023/01/27 02:37:15;;;;;;;0.15;0.15;;;;;;;;;;4922914;28;20150;-76
2023/01/27 02:39:42;;;;;;;0.10;0.10;;;;;;;;;;4923898;28;20042;-76
2023/01/27 02:42:10;;;;;;;0.20;0.20;;;;;;;;;;4921952;28;20787;-76
2023/01/27 02:44:36;;;;;;;0.10;0.10;;;;;;;;;;4921529;28;20369;-76
2023/01/27 02:47:02;;;;;;;0.10;0.10;;;;;;;;;;4929978;28;20571;-74
2023/01/27 02:49:28;;;;;;;0.20;0.20;;;;;;;;;;4927905;28;20765;-77
2023/01/27 02:51:54;;;;;;;0.10;0.10;;;;;;;;;;4925381;28;20058;-77
2023/01/27 02:54:20;;;;;;;0.20;0.20;;;;;;;;;;4926062;28;20043;-77
2023/01/27 02:56:48;;;;;;;0.10;0.10;;;;;;;;;;4930790;28;20054;-76
2023/01/27 02:59:14;;;;;;;0.10;0.10;;;;;;;;;;4928740;28;20193;-75
2023/01/27 03:01:40;;;;;;;0.10;0.10;;;;;;;;;;4925417;28;20903;-75
2023/01/27 03:04:08;;;;;;;0.20;0.20;;;;;;;;;;4925957;28;20141;-75
2023/01/27 03:06:34;;;;;;;0.20;0.20;;;;;;;;;;4926299;28;20051;-77
2023/01/27 03:09:02;;;;;;;0.10;0.10;;;;;;;;;;4930953;28;20047;-75
2023/01/27 03:14:16;;;;;;;0.20;0.20;;;;;;;;;;4924295;28;20085;-74
2023/01/27 03:19:27;;;;;;;0.10;0.10;;;;;;;;;;4921453;28;20050;-75
2023/01/27 03:21:53;;;;;;;0.10;0.10;;;;;;;;;;4932393;28;20419;-75
2023/01/27 03:24:19;;;;;;;0.10;0.10;;;;;;;;;;4928289;28;20100;-75
2023/01/27 03:26:45;;;;;;;0.10;0.10;;;;;;;;;;4930308;28;20169;-76
2023/01/27 03:31:56;;;;;;;0.10;0.10;;;;;;;;;;4928210;28;20569;-77
2023/01/27 03:34:22;;;;;;;0.10;0.10;;;;;;;;;;4927067;28;20058;-77
2023/01/27 03:47:47;;;;;;;0.15;0.15;;;;;;;;;;4931464;28;20431;-76
2023/01/27 03:50:18;;;;;;;0.10;0.10;;;;;;;;;;4932448;28;20451;-76
2023/01/27 03:53:02;;;;;;;0.10;0.10;;;;;;;;;;4931618;28;20411;-77
2023/01/27 03:55:29;;;;;;;0.10;0.10;;;;;;;;;;4930454;28;20873;-76
2023/01/27 03:58:17;;;;;;;0.10;0.10;;;;;;;;;;4930168;28;20053;-75
2023/01/27 04:00:44;;;;;;;0.10;0.10;;;;;;;;;;4926777;28;20078;-77
2023/01/27 04:08:43;;;;;;;0.10;0.10;;;;;;;;;;4930399;28;20529;-75
2023/01/27 04:13:54;;;;;;;0.20;0.20;;;;;;;;;;4919191;28;20214;-76
2023/01/27 04:16:27;;;;;;;0.10;0.10;;;;;;;;;;4918296;28;20058;-76
2023/01/27 04:18:54;;;;;;;0.13;0.13;;;;;;;;;;4926248;28;20094;-76
2023/01/27 04:21:20;;;;;;;0.13;0.13;;;;;;;;;;4926071;28;20050;-76
2023/01/27 04:23:46;;;;;;;0.10;0.10;;;;;;;;;;4920409;28;20051;-76
2023/01/27 04:26:12;;;;;;;0.17;0.17;;;;;;;;;;4930261;28;20478;-75
2023/01/27 04:28:38;;;;;;;0.10;0.10;;;;;;;;;;4927074;28;20470;-75
2023/01/27 04:31:04;;;;;;;0.13;0.13;;;;;;;;;;4929129;28;20058;-75
2023/01/27 04:33:30;;;;;;;0.20;0.20;;;;;;;;;;4925937;28;20383;-75
2023/01/27 04:35:56;;;;;;;0.10;0.10;;;;;;;;;;4925241;28;20082;-75
2023/01/27 04:38:22;;;;;;;0.10;0.10;;;;;;;;;;4930407;28;20428;-75
2023/01/27 04:40:48;;;;;;;0.20;0.20;;;;;;;;;;4925857;28;20402;-75
2023/01/27 04:43:15;;;;;;;0.10;0.10;;;;;;;;;;4928843;28;20078;-75
2023/01/27 04:45:41;;;;;;;0.10;0.10;;;;;;;;;;4928129;28;20611;-75
2023/01/27 04:48:07;;;;;;;0.10;0.10;;;;;;;;;;4928508;28;20105;-75
2023/01/27 04:50:33;;;;;;;0.10;0.10;;;;;;;;;;4929522;28;20517;-76
2023/01/27 04:52:59;;;;;;;0.10;0.10;;;;;;;;;;4924272;28;20057;-75
2023/01/27 04:55:28;;;;;;;0.10;0.10;;;;;;;;;;4927749;28;20043;-74
2023/01/27 04:57:54;;;;;;;0.10;0.10;;;;;;;;;;4930333;28;20059;-75
2023/01/27 05:00:20;;;;;;;0.10;0.10;;;;;;;;;;4927299;28;20050;-75
2023/01/27 05:02:46;;;;;;;0.20;0.20;;;;;;;;;;4928000;28;20121;-74
2023/01/27 05:05:12;;;;;;;0.17;0.17;;;;;;;;;;4918067;28;20043;-76
2023/01/27 05:07:39;;;;;;;0.10;0.10;;;;;;;;;;4929525;28;20483;-75
2023/01/27 05:10:06;;;;;;;0.10;0.10;;;;;;;;;;4930023;28;20352;-76
2023/01/27 05:12:32;;;;;;;0.10;0.10;;;;;;;;;;4928154;28;20384;-76
2023/01/27 05:14:58;;;;;;;0.10;0.10;;;;;;;;;;4928635;28;20093;-74
2023/01/27 05:17:26;;;;;;;0.10;0.10;;;;;;;;;;4927253;28;20130;-75
2023/01/27 05:19:52;;;;;;;0.10;0.10;;;;;;;;;;4928390;28;20051;-75
2023/01/27 05:22:18;;;;;;;0.10;0.10;;;;;;;;;;4927120;28;20163;-75
2023/01/27 05:24:44;;;;;;;0.10;0.10;;;;;;;;;;4925656;28;20055;-76
2023/01/27 05:27:10;;;;;;;0.20;0.20;;;;;;;;;;4927547;28;20078;-75
2023/01/27 05:29:36;;;;;;;0.20;0.20;;;;;;;;;;4927381;28;20715;-76
2023/01/27 05:32:02;;;;;;;0.20;0.20;;;;;;;;;;4926174;28;20047;-75
2023/01/27 05:34:28;;;;;;;0.10;0.10;;;;;;;;;;4928435;28;20059;-76
2023/01/27 05:36:54;;;;;;;0.10;0.10;;;;;;;;;;4929024;28;20878;-76
2023/01/27 05:39:21;;;;;;;0.10;0.10;;;;;;;;;;4928034;28;20558;-75
2023/01/27 05:41:47;;;;;;;0.10;0.10;;;;;;;;;;4925875;28;20417;-76
2023/01/27 05:44:13;;;;;;;0.10;0.10;;;;;;;;;;4921052;28;20042;-76
2023/01/27 05:46:39;;;;;;;0.20;0.20;;;;;;;;;;4924964;28;20042;-76
2023/01/27 05:49:06;;;;;;;0.10;0.10;;;;;;;;;;4926011;28;20118;-76
2023/01/27 05:51:33;;;;;;;0.10;0.10;;;;;;;;;;4924133;28;20191;-77
2023/01/27 05:54:00;;;;;;;0.10;0.10;;;;;;;;;;4925857;28;20081;-75
2023/01/27 05:56:26;;;;;;;0.10;0.10;;;;;;;;;;4922791;28;20050;-76
2023/01/27 05:58:58;;;;;;;0.10;0.10;;;;;;;;;;4929562;28;20047;-75
2023/01/27 06:01:25;;;;;;;0.10;0.10;;;;;;;;;;4927068;28;20574;-75
2023/01/27 06:03:51;;;;;;;0.10;0.10;;;;;;;;;;4927596;28;20546;-75
2023/01/27 06:06:18;;;;;;;0.20;0.20;;;;;;;;;;4929333;28;20082;-75
2023/01/27 06:08:45;;;;;;;0.20;0.20;;;;;;;;;;4923719;28;20043;-76
2023/01/27 06:11:11;;;;;;;0.10;0.10;;;;;;;;;;4927887;28;20051;-75
2023/01/27 06:13:37;;;;;;;0.10;0.10;;;;;;;;;;4926726;28;20474;-76
2023/01/27 06:16:05;;;;;;;0.10;0.10;;;;;;;;;;4934412;28;20299;-76
2023/01/27 06:18:31;;;;;;;0.17;0.17;;;;;;;;;;4933670;28;20486;-75
2023/01/27 06:20:58;;;;;;;0.10;0.10;;;;;;;;;;4932390;28;20046;-76
2023/01/27 06:23:24;;;;;;;0.10;0.10;;;;;;;;;;4924275;28;20059;-76
2023/01/27 06:25:50;;;;;;;0.10;0.10;;;;;;;;;;4932084;28;20053;-76
2023/01/27 06:28:17;;;;;;;0.17;0.17;;;;;;;;;;4925030;28;20522;-75
2023/01/27 06:30:43;;;;;;;0.10;0.10;;;;;;;;;;4925699;28;20093;-75
2023/01/27 06:33:10;;;;;;;0.10;0.10;;;;;;;;;;4929113;28;20097;-74
2023/01/27 06:35:37;;;;;;;0.10;0.10;;;;;;;;;;4927455;28;20051;-75
2023/01/27 06:38:04;;;;;;;0.10;0.10;;;;;;;;;;4930403;28;20495;-75
2023/01/27 06:40:30;;;;;;;0.10;0.10;;;;;;;;;;4932482;28;20684;-76
2023/01/27 06:42:56;;;;;;;0.10;0.10;;;;;;;;;;4931963;28;20228;-75
2023/01/27 06:45:23;;;;;;;0.10;0.10;;;;;;;;;;4929731;28;20047;-75
2023/01/27 06:47:59;;;;;;;0.10;0.10;;;;;;;;;;4931429;28;20644;-75
2023/01/27 06:50:26;;;;;;;0.10;0.10;;;;;;;;;;4924931;28;20047;-75
2023/01/27 06:52:52;;;;;;;0.15;0.15;;;;;;;;;;4921022;28;20050;-75
2023/01/27 06:55:18;;;;;;;0.13;0.13;;;;;;;;;;4930413;28;20532;-76
2023/01/27 06:57:47;;;;;;;0.10;0.10;;;;;;;;;;4926606;28;20046;-75
2023/01/27 07:00:13;;;;;;;0.15;0.15;;;;;;;;;;4933521;28;20066;-75
2023/01/27 07:02:39;;;;;;;0.10;0.10;;;;;;;;;;4930424;28;20042;-76
2023/01/27 07:05:05;;;;;;;0.10;0.10;;;;;;;;;;4929559;28;20145;-75
2023/01/27 07:07:31;;;;;;;0.10;0.10;;;;;;;;;;4930253;28;20554;-76
2023/01/27 07:09:57;;;;;;;0.10;0.10;;;;;;;;;;4930185;28;20047;-77
2023/01/27 07:12:24;;;;;;;0.10;0.10;;;;;;;;;;4923330;28;20527;-75
2023/01/27 07:14:50;;;;;;;0.10;0.10;;;;;;;;;;4930250;28;20035;-75
2023/01/27 07:17:16;;;;;;;0.20;0.20;;;;;;;;;;4929180;28;20050;-75
2023/01/27 07:19:42;;;;;;;0.10;0.10;;;;;;;;;;4933315;28;20125;-76
2023/01/27 07:22:08;;;;;;;0.20;0.20;;;;;;;;;;4932178;28;20043;-75
2023/01/27 07:24:34;;;;;;;0.10;0.10;;;;;;;;;;4931818;28;20608;-75
2023/01/27 07:27:00;;;;;;;0.10;0.10;;;;;;;;;;4928367;28;20589;-77
2023/01/27 07:29:26;;;;;;;0.15;0.15;;;;;;;;;;4924958;28;20038;-74
2023/01/27 07:31:52;;;;;;;0.10;0.10;;;;;;;;;;4917589;28;20126;-74
2023/01/27 07:34:18;;;;;;;0.10;0.10;;;;;;;;;;4925056;28;20072;-74
2023/01/27 07:36:44;;;;;;;0.10;0.10;;;;;;;;;;4932544;28;20735;-73
2023/01/27 07:39:10;;;;;;;0.10;0.10;;;;;;;;;;4923550;28;20043;-72
2023/01/27 07:41:36;;;;;;;0.10;0.10;;;;;;;;;;4928239;28;20054;-73
2023/01/27 07:44:02;;;;;;;0.10;0.10;;;;;;;;;;4932850;28;20046;-74
2023/01/27 07:46:28;;;;;;;0.10;0.10;;;;;;;;;;4929152;28;20141;-73
2023/01/27 07:48:54;;;;;;;0.20;0.20;;;;;;;;;;4925627;28;20105;-75
2023/01/27 07:51:20;;;;;;;0.10;0.10;;;;;;;;;;4918583;28;20134;-73
2023/01/27 07:53:46;;;;;;;0.10;0.10;;;;;;;;;;4927793;28;20082;-74
2023/01/27 07:56:12;;;;;;;0.10;0.10;;;;;;;;;;4927990;28;20543;-73
2023/01/27 07:58:39;;;;;;;0.10;0.10;;;;;;;;;;4926584;28;21131;-74
2023/01/27 08:01:06;;;;;;;0.10;0.10;;;;;;;;;;4925979;28;20133;-74
2023/01/27 08:03:32;;;;;;;0.10;0.10;;;;;;;;;;4930162;28;20649;-73
2023/01/27 08:05:58;;;;;;;0.10;0.10;;;;;;;;;;4929370;28;20593;-74
2023/01/27 08:08:24;;;;;;;0.10;0.10;;;;;;;;;;4925747;28;20794;-74
2023/01/27 08:10:50;;;;;;;0.10;0.10;;;;;;;;;;4928904;28;20053;-73
2023/01/27 08:13:16;;;;;;;0.10;0.10;;;;;;;;;;4930451;28;20236;-72
2023/01/27 08:15:42;;;;;;;0.10;0.10;;;;;;;;;;4927554;28;20326;-73
2023/01/27 08:18:09;;;;;;;0.10;0.10;;;;;;;;;;4930162;28;20094;-74
2023/01/27 08:20:36;;;;;;;0.10;0.10;;;;;;;;;;4929448;28;20046;-73
2023/01/27 08:23:02;;;;;;;0.10;0.10;;;;;;;;;;4920556;28;20142;-73
2023/01/27 08:25:28;;;;;;;0.10;0.10;;;;;;;;;;4927358;28;20133;-72
2023/01/27 08:27:55;;;;;;;0.10;0.10;;;;;;;;;;4922182;28;20081;-73
2023/01/27 08:30:21;;;;;;;0.10;0.10;;;;;;;;;;4922206;28;20472;-73
2023/01/27 08:32:50;;;;;;;0.13;0.13;;;;;;;;;;4927813;28;20050;-73
2023/01/27 08:35:16;;;;;;;0.10;0.10;;;;;;;;;;4930071;28;20503;-72
2023/01/27 08:37:43;;;;;;;0.15;0.15;;;;;;;;;;4930348;28;20549;-73
2023/01/27 08:40:09;;;;;;;0.10;0.10;;;;;;;;;;4924004;28;20426;-73
2023/01/27 08:42:35;;;;;;;0.15;0.15;;;;;;;;;;4927838;28;20081;-72
2023/01/27 08:45:02;;;;;;;0.17;0.17;;;;;;;;;;4925128;28;20073;-72
2023/01/27 08:47:28;;;;;;;0.10;0.10;;;;;;;;;;4925708;28;20583;-72
2023/01/27 08:49:54;;;;;;;0.10;0.10;;;;;;;;;;4923432;28;20558;-73
2023/01/27 08:52:22;;;;;;;0.10;0.10;;;;;;;;;;4931299;28;20042;-73
2023/01/27 08:54:48;;;;;;;0.20;0.20;;;;;;;;;;4928284;28;20489;-72
2023/01/27 08:57:14;;;;;;;0.20;0.20;;;;;;;;;;4930270;28;20348;-72
2023/01/27 08:59:40;;;;;;;0.10;0.10;;;;;;;;;;4930195;28;20983;-73
2023/01/27 09:02:06;;;;;;;0.10;0.10;;;;;;;;;;4928601;28;20715;-73
2023/01/27 09:04:32;;;;;;;0.10;0.10;;;;;;;;;;4929455;28;20736;-74
2023/01/27 09:07:04;;;;;;;0.13;0.13;;;;;;;;;;4928400;28;20585;-72
2023/01/27 09:09:30;;;;;;;0.13;0.13;;;;;;;;;;4917338;28;20581;-73
2023/01/27 09:11:56;;;;;;;0.10;0.10;;;;;;;;;;4926971;28;20065;-72
2023/01/27 09:14:22;;;;;;;0.20;0.20;;;;;;;;;;4918362;28;20046;-73
2023/01/27 09:16:48;;;;;;;0.10;0.10;;;;;;;;;;4929663;28;20122;-73
2023/01/27 09:19:15;;;;;;;0.10;0.10;;;;;;;;;;4925746;28;20529;-72
2023/01/27 09:21:41;;;;;;;0.10;0.10;;;;;;;;;;4925195;28;20065;-72
2023/01/27 09:24:07;;;;;;;0.10;0.10;;;;;;;;;;4927337;28;20051;-72
2023/01/27 09:26:33;;;;;;;0.10;0.10;;;;;;;;;;4928786;28;20050;-73
2023/01/27 09:28:59;;;;;;;0.10;0.10;;;;;;;;;;4914009;28;20055;-74
2023/01/27 09:31:25;;;;;;;0.10;0.10;;;;;;;;;;4918713;28;20047;-74
2023/01/27 09:33:51;;;;;;;0.10;0.10;;;;;;;;;;4925032;28;20524;-72
2023/01/27 09:36:19;;;;;;;0.10;0.10;;;;;;;;;;4923769;28;20478;-73
2023/01/27 09:38:54;;;;;;;0.10;0.10;;;;;;;;;;4929760;28;20826;-73
2023/01/27 09:41:39;;;;;;;0.10;0.10;;;;;;;;;;4927882;28;20656;-79
2023/01/27 09:44:05;;;;;;;0.10;0.10;;;;;;;;;;4924079;28;20450;-73
2023/01/27 09:46:46;;;;;;;0.10;0.10;;;;;;;;;;4925956;28;20042;-74
2023/01/27 09:49:27;;;;;;;0.15;0.15;;;;;;;;;;4933029;28;20059;-75
2023/01/27 09:52:03;;;;;;;0.10;0.10;;;;;;;;;;4928014;28;20520;-73
2023/01/27 09:54:43;;;;;;;0.10;0.10;;;;;;;;;;4927589;28;20498;-73
2023/01/27 09:57:29;;;;;;;0.10;0.10;;;;;;;;;;4926862;28;20613;-72
2023/01/27 10:00:07;;;;;;;0.10;0.10;;;;;;;;;;4919526;28;20059;-73
2023/01/27 10:03:06;;;;;;;0.10;0.10;;;;;;;;;;4924350;28;20516;-73
2023/01/27 10:05:32;;;;;;;0.10;0.10;;;;;;;;;;4893991;28;20569;-73
2023/01/27 10:08:07;;;;;;;0.10;0.10;;;;;;;;;;4931538;28;20403;-73
2023/01/27 10:10:45;;;;;;;0.10;0.10;;;;;;;;;;4930144;28;20146;-73
2023/01/27 10:13:23;;;;;;;0.10;0.10;;;;;;;;;;4931579;28;20686;-74
2023/01/27 10:15:49;;;;;;;0.10;0.10;;;;;;;;;;4930637;28;20047;-72
2023/01/27 10:18:15;;;;;;;0.10;0.10;;;;;;;;;;4926799;28;20051;-73
2023/01/27 10:20:41;;;;;;;0.10;0.10;;;;;;;;;;4929503;28;20078;-73
2023/01/27 10:23:20;;;;;;;0.10;0.10;;;;;;;;;;4928896;28;20050;-73
2023/01/27 10:25:46;;;;;;;0.10;0.10;;;;;;;;;;4928004;28;20448;-72
2023/01/27 10:28:13;;;;;;;0.15;0.15;;;;;;;;;;4929124;28;20057;-71
2023/01/27 10:31:05;;;;;;;0.10;0.10;;;;;;;;;;4928433;28;20051;-72
2023/01/27 10:33:31;;;;;;;0.10;0.10;;;;;;;;;;4932370;28;20130;-72
2023/01/27 10:35:58;;;;;;;0.10;0.10;;;;;;;;;;4927988;28;20057;-72
2023/01/27 10:38:28;;;;;;;0.20;0.20;;;;;;;;;;4932291;28;20499;-71
2023/01/27 10:41:06;;;;;;;0.10;0.10;;;;;;;;;;4932917;28;20059;-72
2023/01/27 10:43:41;;;;;;;0.20;0.20;;;;;;;;;;4928966;28;20435;-72
2023/01/27 10:46:19;;;;;;;0.10;0.10;;;;;;;;;;4926562;28;20047;-72
2023/01/27 10:48:49;;;;;;;0.10;0.10;;;;;;;;;;4924823;28;20046;-73
2023/01/27 10:51:15;;;;;;;0.10;0.10;;;;;;;;;;4924691;28;20050;-72
2023/01/27 10:53:47;;;;;;;0.10;0.10;;;;;;;;;;4914954;28;20070;-73
2023/01/27 10:56:17;;;;;;;0.10;0.10;;;;;;;;;;4927588;28;20590;-73
2023/01/27 10:58:55;;;;;;;0.10;0.10;;;;;;;;;;4926288;28;20050;-72
2023/01/27 11:01:28;;;;;;;0.10;0.10;;;;;;;;;;4923313;28;20511;-75
2023/01/27 11:04:14;;;;;;;0.10;0.10;;;;;;;;;;4929165;28;20759;-73
2023/01/27 11:06:41;;;;;;;0.10;0.10;;;;;;;;;;4924462;28;20581;-73
2023/01/27 11:09:17;;;;;;;0.10;0.10;;;;;;;;;;4929306;28;20177;-72
2023/01/27 11:11:44;;;;;;;0.20;0.20;;;;;;;;;;4925391;28;20209;-74
2023/01/27 11:14:12;;;;;;;0.10;0.10;;;;;;;;;;4929546;28;20051;-73
2023/01/27 11:16:39;;;;;;;0.10;0.10;;;;;;;;;;4932119;28;20061;-74
2023/01/27 11:19:22;;;;;;;0.10;0.10;;;;;;;;;;4928035;28;20062;-73
2023/01/27 11:21:49;;;;;;;0.10;0.10;;;;;;;;;;4929124;28;20125;-73
2023/01/27 11:24:21;;;;;;;0.10;0.10;;;;;;;;;;4930386;28;20561;-73
2023/01/27 11:26:47;;;;;;;;;;;;;;;;;;4919758;28;20656;-74
2023/01/27 11:29:31;;;;;;;0.10;0.10;;;;;;;;;;4931850;28;20444;-72
2023/01/27 11:31:57;;;;;;;0.10;0.10;;;;;;;;;;4931213;28;20435;-72
2023/01/27 11:34:39;;;;;;;0.10;0.10;;;;;;;;;;4930504;28;20047;-73
2023/01/27 11:37:23;;;;;;;0.10;0.10;;;;;;;;;;4930184;28;20451;-74
2023/01/27 11:39:49;;;;;;;0.10;0.10;;;;;;;;;;4929447;28;20058;-73
2023/01/27 11:42:16;;;;;;;0.15;0.15;;;;;;;;;;4931000;28;20515;-72
2023/01/27 11:44:43;;;;;;;0.10;0.10;;;;;;;;;;4911025;29;20137;-72
2023/01/27 11:47:15;;;;;;;0.10;0.10;;;;;;;;;;4926443;28;20047;-72
2023/01/27 11:49:43;;;;;;;0.10;0.10;;;;;;;;;;4925797;28;20140;-72
2023/01/27 11:52:14;;;;;;;0.10;0.10;;;;;;;;;;4929949;28;20746;-73
2023/01/27 11:54:50;;;;;;;0.20;0.20;;;;;;;;;;4925679;28;20050;-72
2023/01/27 11:57:21;;;;;;;0.10;0.10;;;;;;;;;;4919419;28;20042;-73
2023/01/27 11:59:49;;;;;;;0.13;0.13;;;;;;;;;;4929782;28;20042;-73
2023/01/27 12:02:34;;;;;;;0.10;0.10;;;;;;;;;;4930324;28;20059;-73
2023/01/27 12:05:06;;;;;;;0.15;0.15;;;;;;;;;;4933175;28;20244;-72
2023/01/27 12:07:42;;;;;;;0.10;0.10;;;;;;;;;;4922759;28;20095;-73
2023/01/27 12:10:28;;;;;;;0.10;0.10;;;;;;;;;;4930110;28;20372;-72
2023/01/27 12:12:54;;;;;;;0.20;0.20;;;;;;;;;;4931814;28;20046;-73
2023/01/27 12:15:21;;;;;;;0.10;0.10;;;;;;;;;;4929883;28;20043;-72
2023/01/27 12:17:52;;;;;;;0.10;0.10;;;;;;;;;;4931446;28;20101;-73
2023/01/27 12:20:18;;;;;;;0.10;0.10;;;;;;;;;;4925997;28;20516;-73
2023/01/27 12:22:48;;;;;;;0.10;0.10;;;;;;;;;;4930542;28;20186;-72
2023/01/27 12:25:17;;;;;;;0.10;0.10;;;;;;;;;;4928268;28;20377;-73
2023/01/27 12:27:47;;;;;;;0.10;0.10;;;;;;;;;;4929887;28;20854;-72
2023/01/27 12:30:27;;;;;;;0.10;0.10;;;;;;;;;;4927405;28;20543;-73
2023/01/27 12:32:53;;;;;;;0.10;0.10;;;;;;;;;;4928813;28;20318;-73
2023/01/27 12:35:20;;;;;;;0.10;0.10;;;;;;;;;;4931494;28;20043;-73
2023/01/27 12:37:47;;;;;;;0.10;0.10;;;;;;;;;;4927739;28;20854;-72
2023/01/27 12:40:20;;;;;;;0.10;0.10;;;;;;;;;;4929265;28;20058;-72
2023/01/27 12:42:50;;;;;;;0.10;0.10;;;;;;;;;;4920893;28;20608;-72
2023/01/27 12:45:23;;;;;;;0.10;0.10;;;;;;;;;;4927744;28;20443;-72
2023/01/27 12:47:55;;;;;;;0.10;0.10;;;;;;;;;;4930467;28;20366;-72
2023/01/27 12:50:32;;;;;;;0.10;0.10;;;;;;;;;;4929860;28;20043;-73
2023/01/27 12:53:01;;;;;;;0.10;0.10;;;;;;;;;;4938270;28;20093;-73
2023/01/27 12:55:28;;;;;;;0.10;0.10;;;;;;;;;;4926630;28;20057;-72
2023/01/27 12:57:54;;;;;;;0.10;0.10;;;;;;;;;;4928587;28;20051;-74
2023/01/27 13:00:20;;;;;;;0.10;0.10;;;;;;;;;;4924687;28;20094;-73
2023/01/27 13:02:47;;;;;;;0.20;0.20;;;;;;;;;;4926851;28;20069;-75
2023/01/27 13:05:16;;;;;;;0.10;0.10;;;;;;;;;;4918459;28;20145;-73
2023/01/27 13:07:44;;;;;;;0.10;0.10;;;;;;;;;;4924275;28;20696;-74
2023/01/27 13:10:19;;;;;;;0.10;0.10;;;;;;;;;;4928284;28;20061;-74
2023/01/27 13:12:50;;;;;;;0.10;0.10;;;;;;;;;;4925049;28;20137;-74
2023/01/27 13:15:18;;;;;;;0.10;0.10;;;;;;;;;;4929595;28;20043;-75
2023/01/27 13:17:47;;;;;;;0.10;0.10;;;;;;;;;;4927666;28;20062;-74
2023/01/27 13:20:25;;;;;;;0.10;0.10;;;;;;;;;;4929916;28;20575;-74
2023/01/27 13:23:03;;;;;;;0.10;0.10;;;;;;;;;;4931279;28;20637;-74
2023/01/27 13:25:38;;;;;;;0.20;0.20;;;;;;;;;;4927433;28;20093;-74
2023/01/27 13:28:05;;;;;;;0.10;0.10;;;;;;;;;;4929238;28;20063;-71
2023/01/27 13:30:41;;;;;;;0.10;0.10;;;;;;;;;;4927156;28;20054;-72
2023/01/27 13:33:20;;;;;;;0.10;0.10;;;;;;;;;;4929192;28;20077;-71
2023/01/27 13:36:07;;;;;;;0.10;0.10;;;;;;;;;;4933088;28;20154;-72
2023/01/27 13:38:42;;;;;;;0.10;0.10;;;;;;;;;;4933791;28;20474;-74
2023/01/27 13:41:12;;;;;;;0.10;0.10;;;;;;;;;;4932668;28;20042;-74
2023/01/27 13:43:40;;;;;;;0.10;0.10;;;;;;;;;;4930514;28;20487;-73
2023/01/27 13:46:20;;;;;;;0.10;0.10;;;;;;;;;;4932046;28;20085;-73
2023/01/27 13:48:50;;;;;;;0.10;0.10;;;;;;;;;;4933208;28;20078;-71
2023/01/27 13:51:17;;;;;;;0.10;0.10;;;;;;;;;;4924328;28;20107;-73
2023/01/27 13:53:45;;;;;;;0.10;0.10;;;;;;;;;;4929259;28;20051;-72
2023/01/27 13:56:21;;;;;;;0.10;0.10;;;;;;;;;;4931592;28;20054;-72
2023/01/27 13:58:58;;;;;;;0.10;0.10;;;;;;;;;;4928785;28;20639;-71
2023/01/27 14:01:44;;;;;;;0.10;0.10;;;;;;;;;;4932394;28;20573;-72
2023/01/27 14:04:17;;;;;;;0.15;0.15;;;;;;;;;;4882497;28;20065;-73
2023/01/27 14:06:59;;;;;;;0.15;0.15;;;;;;;;;;4926161;28;20042;-72
2023/01/27 14:09:44;;;;;;;0.10;0.10;;;;;;;;;;4927116;28;20557;-71
2023/01/27 14:12:13;;;;;;;0.10;0.10;;;;;;;;;;4926277;28;20054;-73
2023/01/27 14:14:50;;;;;;;0.10;0.10;;;;;;;;;;4925445;28;20050;-73
2023/01/27 14:17:39;;;;;;;0.10;0.10;;;;;;;;;;4929412;28;20097;-71
2023/01/27 14:20:23;;;;;;;0.10;0.10;;;;;;;;;;4921922;28;20251;-76
2023/01/27 14:23:02;;;;;;;0.10;0.10;;;;;;;;;;4931777;28;20093;-72
2023/01/27 14:25:45;;;;;;;0.20;0.20;;;;;;;;;;4914693;29;20158;-72
2023/01/27 14:28:22;;;;;;;0.10;0.10;;;;;;;;;;4926987;28;20514;-71
2023/01/27 14:30:54;;;;;;;0.10;0.10;;;;;;;;;;4924223;28;20047;-72
2023/01/27 14:33:26;;;;;;;0.10;0.10;;;;;;;;;;4922821;28;20055;-72
2023/01/27 14:36:10;;;;;;;0.10;0.10;;;;;;;;;;4931572;28;20053;-73
2023/01/27 14:38:52;;;;;;;0.10;0.10;;;;;;;;;;4927710;28;20343;-71
2023/01/27 14:41:30;;;;;;;0.20;0.20;;;;;;;;;;4924660;28;21046;-71
2023/01/27 14:44:15;;;;;;;0.10;0.10;;;;;;;;;;4926766;28;20534;-72
2023/01/27 14:46:53;;;;;;;0.10;0.10;;;;;;;;;;4923190;28;20533;-72
2023/01/27 14:49:38;;;;;;;0.15;0.15;;;;;;;;;;4923489;28;20046;-72
2023/01/27 14:52:10;;;;;;;0.10;0.10;;;;;;;;;;4930666;28;20517;-72
2023/01/27 14:54:45;;;;;;;0.20;0.20;;;;;;;;;;4931801;28;20092;-73
2023/01/27 14:57:12;;;;;;;0.10;0.10;;;;;;;;;;4921655;28;20644;-73
2023/01/27 14:59:47;;;;;;;0.10;0.10;;;;;;;;;;4933257;28;20061;-74
2023/01/27 15:02:16;;;;;;;0.10;0.10;;;;;;;;;;4931111;28;20050;-74
2023/01/27 15:04:43;;;;;;;0.10;0.10;;;;;;;;;;4934178;28;20392;-74
2023/01/27 15:07:18;;;;;;;0.10;0.10;;;;;;;;;;4930582;28;20058;-72
2023/01/27 15:09:52;;;;;;;0.10;0.10;;;;;;;;;;4932020;28;20388;-70
2023/01/27 15:12:46;;;;;;;0.10;0.10;;;;;;;;;;4913358;28;20081;-74
2023/01/27 15:15:12;;;;;;;0.10;0.10;;;;;;;;;;4931492;28;20146;-71
2023/01/27 15:17:56;;;;;;;0.10;0.10;;;;;;;;;;4928384;28;20096;-73
2023/01/27 15:20:39;;;;;;;0.10;0.10;;;;;;;;;;4928447;28;21087;-73
2023/01/27 15:23:11;;;;;;;0.10;0.10;;;;;;;;;;4927561;28;20097;-72
2023/01/27 15:25:40;;;;;;;0.10;0.10;;;;;;;;;;4927624;28;20546;-73
2023/01/27 15:28:12;;;;;;;0.10;0.10;;;;;;;;;;4921393;28;20057;-72
2023/01/27 15:30:39;;;;;;;0.15;0.15;;;;;;;;;;4923945;28;20249;-72
2023/01/27 15:33:24;;;;;;;0.10;0.10;;;;;;;;;;4918313;28;20399;-73
2023/01/27 15:36:10;;;;;;;0.10;0.10;;;;;;;;;;4928537;28;20427;-71